Time;durP1;ratioP1;P1;durP2;ratioP2;P2;SDS_P1;SDS_P2;PMS_P1;PMS_P2;Temp;Humidity;BMP_temperature;BMP_pressure;BME280_temperature;BME280_humidity;BME280_pressure;Samples;Min_cycle;Max_cycle;Signal;HPM_P1;HPM_P2
2021/12/25 00:02:05;;;;;;;27.83;13.63;;;;;;;2.49;71.66;99212.48;125241;1102;104739;-80
2021/12/25 00:04:37;;;;;;;27.05;12.95;;;;;;;2.49;71.51;99215.06;125119;1102;104287;-80
2021/12/25 00:07:07;;;;;;;29.33;13.97;;;;;;;2.48;71.91;99212.41;125171;1102;104219;-79
2021/12/25 00:09:37;;;;;;;29.80;15.00;;;;;;;2.48;72.00;99220.17;125263;1102;104169;-80
2021/12/25 00:12:07;;;;;;;26.67;13.70;;;;;;;2.47;71.84;99210.62;125154;1102;104306;-79
2021/12/25 00:14:35;;;;;;;28.30;13.53;;;;;;;2.47;72.05;99206.31;125210;1102;105324;-80
2021/12/25 00:17:05;;;;;;;25.57;12.73;;;;;;;2.50;71.83;99209.05;125253;1102;104242;-79
2021/12/25 00:19:34;;;;;;;27.13;12.60;;;;;;;2.56;72.36;99197.23;125230;1102;104235;-79
2021/12/25 00:22:05;;;;;;;26.90;14.13;;;;;;;2.60;72.79;99202.63;125221;1102;104165;-79
2021/12/25 00:24:34;;;;;;;25.67;13.37;;;;;;;2.61;72.45;99203.50;125174;1102;104408;-80
2021/12/25 00:27:09;;;;;;;27.10;13.23;;;;;;;2.61;72.53;99217.33;125213;1102;104155;-78
2021/12/25 00:29:55;;;;;;;25.57;13.00;;;;;;;2.64;72.30;99221.77;125216;1102;104647;-78
2021/12/25 00:32:45;;;;;;;29.67;13.77;;;;;;;2.65;72.40;99233.89;125228;1102;104230;-80
2021/12/25 00:35:14;;;;;;;26.13;12.97;;;;;;;2.70;72.10;99243.66;125039;1102;104284;-79
2021/12/25 00:37:44;;;;;;;27.50;12.87;;;;;;;2.72;72.73;99233.37;125150;1102;104271;-79
2021/12/25 00:40:14;;;;;;;25.90;12.60;;;;;;;2.73;72.09;99240.34;125219;1102;104280;-79
2021/12/25 00:42:42;;;;;;;26.80;13.10;;;;;;;2.75;72.88;99241.28;125156;1102;104188;-80
2021/12/25 00:45:15;;;;;;;25.67;12.80;;;;;;;2.75;72.82;99230.92;125230;1102;104233;-79
2021/12/25 00:47:44;;;;;;;26.90;13.73;;;;;;;2.75;72.02;99224.86;125221;1102;104299;-79
2021/12/25 00:50:16;;;;;;;27.23;12.70;;;;;;;2.74;72.73;99218.77;125186;1102;104322;-80
2021/12/25 00:52:45;;;;;;;28.13;14.10;;;;;;;2.73;72.78;99219.61;125078;1102;104168;-79
2021/12/25 00:55:15;;;;;;;25.05;12.70;;;;;;;2.73;72.02;99226.47;125174;1102;104172;-81
2021/12/25 00:57:44;;;;;;;25.73;12.33;;;;;;;2.77;72.12;99228.41;124990;1103;104328;-79
2021/12/25 01:00:15;;;;;;;25.77;13.00;;;;;;;2.76;72.39;99235.30;125010;1105;104676;-79
2021/12/25 01:02:47;;;;;;;24.20;12.23;;;;;;;2.81;72.94;99238.10;124997;1102;104303;-79
2021/12/25 01:05:23;;;;;;;25.27;12.43;;;;;;;2.84;72.17;99233.06;124965;1102;104288;-79
2021/12/25 01:07:52;;;;;;;24.53;12.23;;;;;;;2.86;72.73;99223.64;125038;1102;104155;-79
2021/12/25 01:10:27;;;;;;;25.00;12.30;;;;;;;2.90;72.53;99229.84;125288;1102;104184;-80
2021/12/25 01:13:03;;;;;;;25.43;12.83;;;;;;;2.92;72.92;99230.83;125081;1102;104201;-79
2021/12/25 01:15:41;;;;;;;24.50;11.67;;;;;;;2.90;72.89;99220.39;125015;1102;104246;-79
2021/12/25 01:18:56;;;;;;;26.57;12.60;;;;;;;2.91;73.43;99216.08;125029;1102;104188;-79
2021/12/25 01:24:36;;;;;;;27.27;11.87;;;;;;;2.90;72.70;99222.07;125124;1102;104784;-80
2021/12/25 01:30:06;;;;;;;23.43;11.53;;;;;;;2.99;72.88;99222.49;125206;1102;104188;-80
2021/12/25 01:33:23;;;;;;;25.77;13.03;;;;;;;2.98;72.90;99216.44;124968;1102;104357;-79
2021/12/25 01:36:45;;;;;;;25.47;12.20;;;;;;;3.00;72.88;99211.31;124648;1105;104695;-80
2021/12/25 01:48:46;;;;;;;23.47;11.70;;;;;;;2.94;72.86;99209.33;125187;1102;108275;-79
2021/12/25 01:51:17;;;;;;;25.40;12.23;;;;;;;2.93;72.84;99204.07;125166;1102;104229;-79
2021/12/25 01:53:50;;;;;;;23.53;12.07;;;;;;;2.91;72.98;99213.48;125031;1103;104130;-79
2021/12/25 01:56:20;;;;;;;26.80;12.77;;;;;;;2.88;73.11;99206.45;125070;1102;104171;-79
2021/12/25 01:58:49;;;;;;;26.17;12.33;;;;;;;2.85;73.52;99204.63;125000;1102;118677;-80
2021/12/25 02:01:19;;;;;;;24.83;12.80;;;;;;;2.86;73.51;99216.75;124997;1102;104307;-81
2021/12/25 02:03:48;;;;;;;23.75;11.75;;;;;;;2.85;73.62;99221.86;125232;1102;104162;-80
2021/12/25 02:06:17;;;;;;;26.47;12.43;;;;;;;2.85;73.50;99222.77;125166;1102;104297;-79
2021/12/25 02:08:46;;;;;;;24.60;12.27;;;;;;;2.83;73.11;99224.37;124984;1105;104415;-79
2021/12/25 02:11:15;;;;;;;26.23;12.20;;;;;;;2.83;73.23;99224.37;125018;1105;104447;-78
2021/12/25 02:13:46;;;;;;;22.77;11.43;;;;;;;2.86;74.08;99227.11;124975;1105;104325;-79
2021/12/25 02:16:21;;;;;;;23.10;11.50;;;;;;;2.92;73.88;99223.92;124999;1105;104316;-79
2021/12/25 02:19:01;;;;;;;23.93;11.20;;;;;;;2.95;73.61;99225.78;125010;1105;104392;-78
2021/12/25 02:22:00;;;;;;;23.43;11.90;;;;;;;2.93;73.49;99237.76;124968;1105;104216;-79
2021/12/25 02:24:29;;;;;;;24.57;12.10;;;;;;;2.95;73.83;99237.02;124723;1105;104335;-79
2021/12/25 02:26:58;;;;;;;24.73;11.67;;;;;;;2.95;73.93;99237.02;124788;1106;104335;-80
2021/12/25 02:29:28;;;;;;;23.57;10.70;;;;;;;2.95;73.84;99243.92;124970;1105;104741;-79
2021/12/25 02:31:57;;;;;;;24.60;11.23;;;;;;;2.95;73.96;99243.92;124728;1105;104332;-80
2021/12/25 02:34:27;;;;;;;24.00;11.67;;;;;;;2.94;73.79;99247.31;124844;1105;104316;-79
2021/12/25 02:36:57;;;;;;;23.20;10.70;;;;;;;2.90;73.44;99243.71;125005;1105;104306;-78
2021/12/25 02:39:26;;;;;;;21.73;10.47;;;;;;;2.92;73.72;99241.19;124727;1105;105867;-78
2021/12/25 02:41:55;;;;;;;23.57;11.80;;;;;;;2.93;73.69;99243.85;125010;1105;104345;-79
2021/12/25 02:44:25;;;;;;;23.20;10.70;;;;;;;2.93;73.57;99246.44;124978;1105;104684;-79
2021/12/25 02:46:55;;;;;;;25.50;11.60;;;;;;;2.94;73.97;99248.19;125185;1102;104165;-79
2021/12/25 02:49:25;;;;;;;25.80;11.50;;;;;;;2.94;73.59;99239.55;125098;1102;104229;-79
2021/12/25 02:51:54;;;;;;;24.60;10.67;;;;;;;2.92;74.32;99246.37;125069;1102;105326;-79
2021/12/25 02:54:23;;;;;;;24.00;11.13;;;;;;;2.92;73.94;99246.37;125002;1102;104159;-79
2021/12/25 02:56:53;;;;;;;23.90;10.87;;;;;;;2.92;73.28;99248.96;125131;1102;104168;-79
2021/12/25 02:59:22;;;;;;;23.63;11.90;;;;;;;2.88;73.92;99255.69;125011;1102;104233;-79
2021/12/25 03:01:52;;;;;;;23.30;10.67;;;;;;;2.86;74.27;99253.02;125035;1102;104271;-80
2021/12/25 03:04:22;;;;;;;23.47;10.80;;;;;;;2.86;73.59;99260.80;125228;1102;104309;-80
2021/12/25 03:06:51;;;;;;;25.55;11.35;;;;;;;2.86;73.68;99271.16;125025;1105;104169;-80
2021/12/25 03:09:21;;;;;;;24.70;12.00;;;;;;;2.83;73.62;99272.73;125037;1105;104306;-80
2021/12/25 03:11:51;;;;;;;26.03;11.83;;;;;;;2.79;74.04;99271.71;125054;1105;104185;-80
2021/12/25 03:14:32;;;;;;;24.33;11.50;;;;;;;2.76;73.82;99261.20;125026;1105;104139;-80
2021/12/25 03:17:01;;;;;;;23.57;11.60;;;;;;;2.73;73.63;99270.51;124984;1105;104453;-79
2021/12/25 03:19:32;;;;;;;22.83;11.50;;;;;;;2.69;73.50;99266.90;125018;1105;104383;-79
2021/12/25 03:22:03;;;;;;;28.60;11.73;;;;;;;2.68;74.04;99262.52;125004;1105;104197;-79
2021/12/25 03:24:32;;;;;;;27.40;11.53;;;;;;;2.68;73.50;99268.61;125047;1105;104251;-79
2021/12/25 03:27:01;;;;;;;25.60;12.50;;;;;;;2.67;73.66;99268.54;125053;1105;104325;-80
2021/12/25 03:29:35;;;;;;;25.17;11.83;;;;;;;2.67;74.02;99272.00;124978;1105;104191;-79
2021/12/25 03:32:04;;;;;;;24.05;10.45;;;;;;;2.67;73.80;99277.19;124987;1105;104168;-79
2021/12/25 03:34:34;;;;;;;22.50;9.95;;;;;;;2.68;73.90;99278.06;124968;1105;104274;-79
2021/12/25 03:37:07;;;;;;;22.40;9.97;;;;;;;2.69;74.37;99269.48;125055;1106;104303;-79
2021/12/25 03:39:37;;;;;;;20.50;9.25;;;;;;;2.70;74.00;99273.87;124988;1102;104184;-78
2021/12/25 03:42:08;;;;;;;23.80;10.30;;;;;;;2.71;73.57;99278.20;125176;1102;104299;-79
2021/12/25 03:44:39;;;;;;;20.90;9.97;;;;;;;2.72;74.12;99282.59;125195;1102;104168;-80
2021/12/25 03:47:21;;;;;;;21.13;9.60;;;;;;;2.72;74.59;99281.70;125097;1103;104159;-79
2021/12/25 03:58:19;;;;;;;19.40;8.70;;;;;;;2.86;74.72;99294.48;125024;1104;104165;-80
2021/12/25 04:00:50;;;;;;;20.50;9.20;;;;;;;2.90;74.91;99294.63;124973;1105;104182;-78
2021/12/25 04:03:26;;;;;;;20.53;8.57;;;;;;;2.93;74.79;99297.36;125016;1106;104303;-79
2021/12/25 04:06:07;;;;;;;18.47;8.43;;;;;;;2.97;74.61;99304.47;124978;1105;104826;-79
2021/12/25 04:08:42;;;;;;;18.17;8.90;;;;;;;3.02;74.78;99310.75;124998;1105;104157;-79
2021/12/25 04:11:14;;;;;;;19.80;9.13;;;;;;;3.06;74.71;99313.55;124970;1105;104207;-79
2021/12/25 04:13:43;;;;;;;19.20;8.67;;;;;;;3.09;74.94;99314.53;125031;1105;104284;-79
2021/12/25 04:16:12;;;;;;;17.83;7.83;;;;;;;3.13;74.71;99319.93;124993;1105;104296;-79
2021/12/25 04:18:42;;;;;;;20.47;8.63;;;;;;;3.18;74.27;99323.61;125026;1105;104374;-79
2021/12/25 04:21:10;;;;;;;18.13;7.70;;;;;;;3.19;74.67;99324.49;124997;1105;104258;-79
2021/12/25 04:23:42;;;;;;;17.70;8.37;;;;;;;3.23;74.65;99332.48;125043;1106;104748;-80
2021/12/25 04:26:12;;;;;;;18.53;8.70;;;;;;;3.26;74.99;99336.02;125102;1102;104258;-79
2021/12/25 04:28:46;;;;;;;18.50;7.97;;;;;;;3.28;74.80;99340.47;125045;1102;104150;-79
2021/12/25 04:31:31;;;;;;;17.43;8.10;;;;;;;3.29;74.73;99338.75;124940;1102;104175;-78
2021/12/25 04:48:42;;;;;;;18.90;7.90;;;;;;;3.33;74.79;99358.84;124919;1105;104230;-81
2021/12/25 05:02:07;;;;;;;18.77;8.00;;;;;;;3.22;74.94;99374.77;124899;1105;104319;-79
2021/12/25 05:04:49;;;;;;;17.83;7.60;;;;;;;3.21;75.15;99374.70;125024;1105;104165;-80
2021/12/25 05:07:31;;;;;;;17.93;7.90;;;;;;;3.22;75.56;99382.55;125016;1106;104174;-79
2021/12/25 05:10:02;;;;;;;14.80;7.00;;;;;;;3.25;75.56;99397.38;125020;1105;104443;-80
2021/12/25 05:12:39;;;;;;;19.63;8.00;;;;;;;3.27;74.74;99397.44;124891;1106;104165;-79
2021/12/25 05:15:08;;;;;;;16.07;7.13;;;;;;;3.26;74.95;99400.84;125013;1105;105822;-79
2021/12/25 05:17:37;;;;;;;15.20;7.33;;;;;;;3.23;75.52;99401.60;125054;1105;104298;-79
2021/12/25 05:20:08;;;;;;;17.83;7.70;;;;;;;3.23;74.87;99399.89;125043;1102;104190;-80
2021/12/25 05:22:36;;;;;;;16.03;8.00;;;;;;;3.23;74.96;99399.02;125046;1102;104291;-79
2021/12/25 05:25:06;;;;;;;16.67;7.77;;;;;;;3.21;75.78;99396.34;125143;1102;104169;-78
2021/12/25 05:27:40;;;;;;;15.47;7.43;;;;;;;3.21;75.05;99398.03;125112;1102;104229;-79
2021/12/25 05:30:11;;;;;;;18.47;8.13;;;;;;;3.21;75.29;99430.05;124982;1102;104309;-79
2021/12/25 05:32:53;;;;;;;18.37;8.18;;;;;;;3.21;74.97;99421.36;124967;1102;104280;-82
2021/12/25 05:35:46;;;;;;;19.17;8.37;;;;;;;3.22;75.46;99433.52;125185;1102;104165;-79
2021/12/25 05:38:41;;;;;;;18.27;8.17;;;;;;;3.26;75.87;99439.73;124994;1102;104261;-80
2021/12/25 05:41:30;;;;;;;21.83;9.83;;;;;;;3.26;75.73;99439.73;124954;1102;105744;-79
2021/12/25 05:44:00;;;;;;;21.50;10.25;;;;;;;3.25;75.83;99444.03;125119;1102;104329;-80
2021/12/25 05:47:04;;;;;;;19.23;8.97;;;;;;;3.22;75.62;99444.77;124601;1105;104175;-80
2021/12/25 05:49:36;;;;;;;19.07;8.63;;;;;;;3.23;75.20;99446.55;125030;1102;104407;-79
2021/12/25 05:52:08;;;;;;;18.20;8.17;;;;;;;3.21;75.54;99452.47;124883;1103;104177;-80
2021/12/25 05:55:09;;;;;;;19.07;8.23;;;;;;;3.21;75.17;99453.38;124922;1102;104163;-80
2021/12/25 05:58:07;;;;;;;19.80;8.37;;;;;;;3.20;75.29;99461.09;125066;1102;105271;-80
2021/12/25 06:00:37;;;;;;;19.43;9.60;;;;;;;3.20;75.81;99458.49;125135;1102;105377;-79
2021/12/25 06:03:07;;;;;;;21.40;10.80;;;;;;;3.20;75.79;99466.27;125016;1102;104153;-79
2021/12/25 06:05:40;;;;;;;22.27;11.10;;;;;;;3.21;75.98;99463.75;124982;1102;104245;-79
2021/12/25 06:08:08;;;;;;;24.53;11.03;;;;;;;3.21;75.77;99458.56;125083;1102;104287;-80
2021/12/25 06:10:37;;;;;;;19.75;9.40;;;;;;;3.20;75.41;99461.09;124951;1103;104171;-79
2021/12/25 06:13:09;;;;;;;17.87;8.43;;;;;;;3.22;75.88;99465.51;125067;1102;104219;-80
2021/12/25 06:15:40;;;;;;;19.02;8.33;;;;;;;3.27;75.56;99470.92;124999;1102;104213;-80
2021/12/25 06:18:27;;;;;;;19.93;8.43;;;;;;;3.32;75.78;99482.42;124975;1105;104513;-80
2021/12/25 06:21:11;;;;;;;17.30;7.70;;;;;;;3.35;76.20;99476.47;124969;1102;104156;-79
2021/12/25 06:24:00;;;;;;;16.97;7.70;;;;;;;3.41;75.98;99474.17;124997;1103;104303;-78
2021/12/25 06:26:44;;;;;;;17.37;7.37;;;;;;;3.49;76.45;99477.13;125068;1101;104184;-79
2021/12/25 06:29:36;;;;;;;15.10;7.23;;;;;;;3.55;75.60;99473.15;124919;1102;104175;-79
2021/12/25 06:32:24;;;;;;;16.87;6.63;;;;;;;3.59;75.58;99484.55;125154;1102;104894;-79
2021/12/25 06:35:15;;;;;;;12.40;6.13;;;;;;;3.68;75.89;99497.95;125181;1102;104155;-79
2021/12/25 06:38:01;;;;;;;14.10;6.00;;;;;;;3.74;76.47;99502.52;125225;1102;104265;-79
2021/12/25 06:40:56;;;;;;;14.97;6.50;;;;;;;3.80;76.33;99507.13;125058;1102;104368;-79
2021/12/25 06:43:25;;;;;;;12.87;6.00;;;;;;;3.84;76.64;99506.45;125175;1102;104168;-79
2021/12/25 06:45:55;;;;;;;14.00;6.20;;;;;;;3.92;76.31;99505.09;125181;1102;104162;-79
2021/12/25 06:48:26;;;;;;;12.67;5.80;;;;;;;3.98;76.61;99501.91;125122;1102;104162;-79
2021/12/25 06:51:21;;;;;;;12.23;6.30;;;;;;;4.04;76.17;99497.87;125163;1102;104053;-78
2021/12/25 06:54:08;;;;;;;14.80;6.53;;;;;;;4.10;76.70;99500.75;125119;1102;104213;-80
2021/12/25 06:56:53;;;;;;;11.57;6.10;;;;;;;4.14;76.46;99500.08;125207;1102;104155;-79
2021/12/25 06:59:28;;;;;;;12.60;5.90;;;;;;;4.19;76.62;99494.19;125020;1102;104336;-79
2021/12/25 07:01:58;;;;;;;13.23;6.40;;;;;;;4.22;76.67;99497.80;125055;1102;104156;-79
2021/12/25 07:04:45;;;;;;;11.37;5.67;;;;;;;4.28;76.67;99492.88;125181;1102;104291;-79
2021/12/25 07:07:34;;;;;;;14.15;6.05;;;;;;;4.35;76.41;99499.26;125146;1102;104160;-80
2021/12/25 07:10:29;;;;;;;13.10;6.33;;;;;;;4.42;76.17;99497.81;125087;1102;104162;-80
2021/12/25 07:13:15;;;;;;;17.10;7.13;;;;;;;4.48;76.22;99506.75;125067;1102;104211;-79
2021/12/25 07:16:17;;;;;;;16.20;7.10;;;;;;;4.55;76.45;99507.02;125003;1103;108263;-80
2021/12/25 07:19:15;;;;;;;16.87;7.47;;;;;;;4.61;76.80;99505.61;125148;1102;104235;-81
2021/12/25 07:22:10;;;;;;;20.03;8.77;;;;;;;4.69;76.41;99518.93;125144;1102;104294;-80
2021/12/25 07:24:39;;;;;;;21.10;10.53;;;;;;;4.71;76.02;99514.67;125171;1102;104287;-80
2021/12/25 07:27:33;;;;;;;;;;;;;;;4.71;77.12;99506.88;125018;1102;104240;-79
2021/12/25 07:30:04;;;;;;;22.17;9.47;;;;;;;4.73;76.37;99522.55;125173;1102;104264;-80
2021/12/25 07:32:33;;;;;;;22.73;10.37;;;;;;;4.78;76.14;99515.82;125222;1102;104297;-80
2021/12/25 07:35:02;;;;;;;18.73;8.93;;;;;;;4.84;76.56;99526.48;125209;1102;104168;-80
2021/12/25 07:37:30;;;;;;;19.10;8.60;;;;;;;4.93;76.99;99531.20;125221;1102;104185;-80
2021/12/25 07:40:00;;;;;;;20.13;8.50;;;;;;;4.99;76.75;99532.34;125201;1102;104287;-80
2021/12/25 07:42:29;;;;;;;21.27;9.43;;;;;;;5.07;76.46;99526.59;125020;1102;104226;-80
2021/12/25 07:45:14;;;;;;;21.57;10.57;;;;;;;5.12;76.71;99515.53;125180;1102;104213;-79
2021/12/25 07:47:48;;;;;;;22.70;10.50;;;;;;;5.18;76.75;99514.91;125172;1102;104286;-79
2021/12/25 07:50:19;;;;;;;23.90;11.40;;;;;;;5.25;76.56;99522.15;125164;1102;104287;-80
2021/12/25 07:52:49;;;;;;;22.47;11.53;;;;;;;5.29;76.98;99521.44;125195;1101;104291;-80
2021/12/25 07:55:18;;;;;;;27.17;13.03;;;;;;;5.35;76.78;99526.01;125167;1102;104300;-80
2021/12/25 07:57:47;;;;;;;24.63;11.63;;;;;;;5.43;76.84;99523.72;125202;1102;104201;-79
2021/12/25 08:00:17;;;;;;;22.83;11.23;;;;;;;5.53;77.07;99537.17;125236;1101;104178;-80
2021/12/25 08:02:46;;;;;;;20.73;10.27;;;;;;;5.67;76.92;99539.41;125233;1102;104211;-79
2021/12/25 08:05:15;;;;;;;25.70;13.17;;;;;;;5.81;76.65;99546.05;125144;1102;104267;-79
2021/12/25 08:07:44;;;;;;;26.30;12.70;;;;;;;5.90;76.68;99553.34;125168;1102;104345;-79
2021/12/25 08:10:18;;;;;;;22.77;12.00;;;;;;;6.00;76.49;99560.73;125202;1102;104152;-79
2021/12/25 08:12:49;;;;;;;23.73;11.90;;;;;;;6.16;76.65;99566.54;125239;1102;103993;-80
2021/12/25 08:15:21;;;;;;;21.93;10.93;;;;;;;6.25;76.37;99567.77;125219;1102;104281;-79
2021/12/25 08:17:51;;;;;;;22.57;11.93;;;;;;;6.30;76.29;99568.81;125172;1102;104243;-79
2021/12/25 08:20:42;;;;;;;22.83;11.87;;;;;;;6.35;76.37;99573.33;124902;1102;104386;-80
2021/12/25 08:23:34;;;;;;;23.87;11.67;;;;;;;6.36;76.39;99575.99;124981;1102;104377;-79
2021/12/25 08:26:22;;;;;;;25.37;12.87;;;;;;;6.39;76.41;99583.92;125214;1102;104207;-79
2021/12/25 08:29:10;;;;;;;26.03;12.83;;;;;;;6.38;76.27;99576.92;125158;1102;104153;-80
2021/12/25 08:31:57;;;;;;;23.80;11.27;;;;;;;6.39;76.34;99576.11;125161;1102;104162;-80
2021/12/25 08:34:54;;;;;;;22.43;11.23;;;;;;;6.42;76.19;99571.01;125216;1102;104147;-80
2021/12/25 08:37:26;;;;;;;22.73;11.30;;;;;;;6.46;76.11;99579.82;125023;1102;104280;-80
2021/12/25 08:39:56;;;;;;;23.10;11.50;;;;;;;6.51;76.16;99574.78;125247;1102;104289;-80
2021/12/25 08:42:26;;;;;;;23.60;12.33;;;;;;;6.56;76.28;99576.73;125199;1102;104156;-80
2021/12/25 08:45:05;;;;;;;25.57;12.50;;;;;;;6.62;76.44;99576.05;125252;1102;104290;-79
2021/12/25 08:47:36;;;;;;;23.07;11.60;;;;;;;6.71;76.51;99578.12;125123;1102;104176;-79
2021/12/25 08:50:08;;;;;;;22.53;12.07;;;;;;;6.73;76.01;99577.36;125099;1102;104211;-80
2021/12/25 08:52:38;;;;;;;25.33;12.33;;;;;;;6.78;76.03;99578.40;125229;1102;104239;-79
2021/12/25 08:55:11;;;;;;;27.20;13.47;;;;;;;6.82;76.01;99572.48;125223;1102;104169;-79
2021/12/25 08:57:39;;;;;;;25.83;14.13;;;;;;;6.86;76.10;99570.85;125171;1101;104325;-79
2021/12/25 09:00:11;;;;;;;27.77;13.97;;;;;;;6.92;76.27;99568.47;125135;1102;104201;-80
2021/12/25 09:02:40;;;;;;;29.13;14.57;;;;;;;7.01;76.35;99560.05;125177;1102;104348;-79
2021/12/25 09:05:09;;;;;;;28.20;15.40;;;;;;;7.09;75.73;99560.32;125187;1102;104165;-80
2021/12/25 09:07:41;;;;;;;30.13;16.03;;;;;;;7.16;75.78;99559.70;125149;1102;105620;-79
2021/12/25 09:10:10;;;;;;;33.43;16.17;;;;;;;7.22;75.71;99557.31;125181;1102;104351;-80
2021/12/25 09:12:41;;;;;;;29.90;15.53;;;;;;;7.27;75.83;99554.86;125077;1102;104273;-79
2021/12/25 09:15:14;;;;;;;32.83;16.10;;;;;;;7.29;75.85;99566.22;125103;1102;104223;-78
2021/12/25 09:17:43;;;;;;;31.70;16.83;;;;;;;7.30;75.61;99565.41;124926;1102;104168;-79
2021/12/25 09:20:15;;;;;;;34.17;18.27;;;;;;;7.29;75.67;99568.84;125236;1102;104191;-80
2021/12/25 09:22:44;;;;;;;34.20;18.97;;;;;;;7.30;75.70;99570.62;125176;1102;104297;-78
2021/12/25 09:25:13;;;;;;;35.47;18.20;;;;;;;7.31;75.43;99557.63;125131;1102;104162;-80
2021/12/25 09:27:42;;;;;;;38.03;20.40;;;;;;;7.36;75.02;99560.39;125148;1102;104163;-80
2021/12/25 09:30:12;;;;;;;39.43;19.80;;;;;;;7.42;75.36;99557.98;125184;1102;104168;-79
2021/12/25 09:32:41;;;;;;;37.63;19.73;;;;;;;7.53;75.08;99559.22;125174;1102;104174;-80
2021/12/25 09:35:10;;;;;;;34.75;18.85;;;;;;;7.64;75.49;99562.17;125144;1102;104226;-79
2021/12/25 09:37:40;;;;;;;38.53;18.73;;;;;;;7.71;75.03;99572.00;125135;1102;104271;-79
2021/12/25 09:40:13;;;;;;;42.40;22.63;;;;;;;7.76;74.39;99590.42;125236;1102;104163;-80
2021/12/25 09:42:43;;;;;;;43.80;21.43;;;;;;;7.74;74.14;99595.59;125212;1102;104201;-79
2021/12/25 09:45:17;;;;;;;39.27;19.57;;;;;;;7.68;74.27;99586.66;125159;1102;104168;-80
2021/12/25 09:47:45;;;;;;;37.87;20.00;;;;;;;7.64;73.75;99592.63;125128;1102;104165;-80
2021/12/25 09:50:15;;;;;;;35.30;19.10;;;;;;;7.62;73.93;99594.28;125155;1102;104168;-81
2021/12/25 09:52:47;;;;;;;37.77;19.40;;;;;;;7.66;74.07;99590.95;125204;1102;104165;-80
2021/12/25 09:55:20;;;;;;;34.67;17.53;;;;;;;7.71;74.54;99579.83;125125;1102;104184;-81
2021/12/25 09:57:50;;;;;;;33.00;17.57;;;;;;;7.81;73.91;99588.84;125138;1102;105550;-80
2021/12/25 10:00:21;;;;;;;30.40;16.03;;;;;;;7.95;74.53;99578.83;125198;1102;104156;-80
2021/12/25 10:02:55;;;;;;;29.17;14.20;;;;;;;8.11;74.32;99569.73;125162;1102;104162;-80
2021/12/25 10:05:30;;;;;;;28.83;14.17;;;;;;;8.24;74.17;99600.64;125236;1102;104335;-80
2021/12/25 10:08:07;;;;;;;27.00;14.10;;;;;;;8.36;74.28;99607.95;125051;1102;104222;-79
2021/12/25 10:10:42;;;;;;;26.00;13.35;;;;;;;8.48;74.20;99590.88;125184;1102;104201;-79
2021/12/25 10:13:25;;;;;;;25.37;12.77;;;;;;;8.59;74.27;99592.11;125043;1102;104736;-80
2021/12/25 10:15:59;;;;;;;26.20;12.28;;;;;;;8.70;73.38;99598.52;125144;1102;104201;-80
2021/12/25 10:18:34;;;;;;;24.18;10.72;;;;;;;8.81;72.83;99594.48;124993;1102;104166;-79
2021/12/25 10:21:19;;;;;;;24.20;11.27;;;;;;;8.90;72.40;99591.24;125200;1102;104161;-80
2021/12/25 10:24:04;;;;;;;23.83;10.57;;;;;;;8.95;72.16;99597.48;125120;1101;104207;-80
2021/12/25 10:26:34;;;;;;;22.20;9.80;;;;;;;9.05;72.49;99606.46;124926;1102;104210;-78
2021/12/25 10:29:16;;;;;;;20.73;10.23;;;;;;;9.10;71.65;99619.67;125023;1102;105190;-79
2021/12/25 10:31:46;;;;;;;20.80;8.37;;;;;;;9.04;70.99;99619.50;125142;1102;102043;-79
2021/12/25 10:34:16;;;;;;;17.87;7.90;;;;;;;8.95;71.03;99622.77;125116;1102;104185;-79
2021/12/25 10:36:45;;;;;;;18.67;8.50;;;;;;;8.84;70.83;99632.93;125098;1102;104676;-79
2021/12/25 10:39:16;;;;;;;17.33;7.70;;;;;;;8.73;70.79;99642.20;125164;1102;104299;-80
2021/12/25 10:41:54;;;;;;;17.30;7.50;;;;;;;8.64;71.27;99632.34;125090;1102;104287;-80
2021/12/25 10:44:25;;;;;;;19.07;8.13;;;;;;;8.57;71.28;99631.28;125035;1102;104268;-79
2021/12/25 10:46:56;;;;;;;16.37;7.17;;;;;;;8.52;71.19;99645.92;125213;1102;104159;-78
2021/12/25 10:49:30;;;;;;;16.10;7.03;;;;;;;8.45;70.56;99649.22;125162;1102;104156;-79
2021/12/25 10:52:11;;;;;;;16.40;7.47;;;;;;;8.40;71.01;99641.20;125177;1102;104277;-79
2021/12/25 10:54:42;;;;;;;16.63;7.17;;;;;;;8.37;70.80;99625.42;125187;1102;104156;-79
2021/12/25 10:57:11;;;;;;;16.33;7.20;;;;;;;8.33;71.11;99635.73;125184;1102;104252;-80
2021/12/25 10:59:46;;;;;;;17.47;7.30;;;;;;;8.30;70.51;99644.36;125150;1102;104184;-79
2021/12/25 11:02:30;;;;;;;16.30;7.30;;;;;;;8.24;70.68;99647.69;125247;1102;104149;-80
2021/12/25 11:05:14;;;;;;;17.30;7.83;;;;;;;8.20;70.43;99635.35;125172;1102;104412;-80
2021/12/25 11:07:45;;;;;;;16.03;7.33;;;;;;;8.19;70.28;99648.38;125173;1102;104229;-80
2021/12/25 11:10:18;;;;;;;17.63;8.23;;;;;;;8.19;70.57;99643.14;125162;1102;104165;-79
2021/12/25 11:12:47;;;;;;;18.93;8.17;;;;;;;8.17;70.17;99637.87;125187;1102;104174;-80
2021/12/25 11:15:24;;;;;;;19.85;8.20;;;;;;;8.15;69.73;99636.94;125054;1103;104152;-80
2021/12/25 11:18:04;;;;;;;22.27;8.73;;;;;;;8.12;70.02;99638.55;125159;1102;104265;-79
2021/12/25 11:20:36;;;;;;;19.93;8.73;;;;;;;8.05;70.18;99640.97;125093;1102;104351;-79
2021/12/25 11:23:07;;;;;;;20.30;8.83;;;;;;;8.02;70.20;99642.60;125232;1102;104656;-79
2021/12/25 11:25:38;;;;;;;20.60;9.07;;;;;;;7.99;70.37;99640.77;125143;1102;104288;-79
2021/12/25 11:28:10;;;;;;;18.37;8.03;;;;;;;7.97;69.68;99650.29;125051;1102;104175;-80
2021/12/25 11:30:43;;;;;;;16.67;8.07;;;;;;;7.92;69.09;99652.75;125151;1102;104405;-79
2021/12/25 11:33:13;;;;;;;18.37;8.00;;;;;;;7.89;69.59;99652.66;125159;1102;104611;-80
2021/12/25 11:35:42;;;;;;;16.97;7.90;;;;;;;7.88;69.70;99656.13;125233;1102;104614;-80
2021/12/25 11:38:14;;;;;;;20.53;8.30;;;;;;;7.85;69.54;99656.02;125043;1102;104159;-80
2021/12/25 11:40:50;;;;;;;24.13;10.53;;;;;;;7.84;69.48;99653.36;125200;1101;104168;-79
2021/12/25 11:43:35;;;;;;;27.40;11.77;;;;;;;7.82;69.80;99649.78;125188;1102;104184;-79
2021/12/25 11:46:06;;;;;;;25.87;11.80;;;;;;;7.79;69.74;99644.46;125212;1102;104188;-80
2021/12/25 11:48:36;;;;;;;22.63;9.93;;;;;;;7.78;69.66;99646.20;125153;1102;104226;-80
2021/12/25 11:51:10;;;;;;;21.83;9.53;;;;;;;7.76;69.98;99653.11;125174;1102;104153;-79
2021/12/25 11:53:53;;;;;;;19.53;8.77;;;;;;;7.74;69.15;99653.05;125199;1102;104283;-80
2021/12/25 11:56:34;;;;;;;21.30;9.27;;;;;;;7.72;69.16;99661.66;125206;1102;104313;-80
2021/12/25 11:59:12;;;;;;;20.33;8.87;;;;;;;7.73;69.70;99659.09;125181;1102;104348;-80
2021/12/25 12:01:46;;;;;;;19.67;8.87;;;;;;;7.71;69.18;99657.27;125138;1102;104168;-81
2021/12/25 12:04:21;;;;;;;22.07;9.27;;;;;;;7.67;68.86;99661.50;125022;1102;104165;-80
2021/12/25 12:06:57;;;;;;;26.27;11.07;;;;;;;7.66;69.12;99669.28;125243;1102;104166;-79
2021/12/25 12:09:56;;;;;;;22.17;9.97;;;;;;;7.62;69.19;99667.39;125146;1102;104168;-79
2021/12/25 12:12:32;;;;;;;23.27;9.67;;;;;;;7.58;68.77;99668.14;125236;1102;104171;-81
2021/12/25 12:15:14;;;;;;;20.03;9.10;;;;;;;7.53;68.76;99684.53;125118;1101;104297;-79
2021/12/25 12:18:35;;;;;;;20.45;8.90;;;;;;;7.48;68.93;99688.71;125000;1102;104239;-79
2021/12/25 12:21:09;;;;;;;20.00;9.13;;;;;;;7.41;68.99;99689.31;125133;1102;104169;-79
2021/12/25 12:23:52;;;;;;;21.30;9.57;;;;;;;7.35;69.16;99694.31;125234;1102;104291;-80
2021/12/25 12:26:58;;;;;;;21.03;9.70;;;;;;;7.30;68.74;99701.10;125217;1102;104169;-79
2021/12/25 12:29:46;;;;;;;19.53;9.13;;;;;;;7.25;68.79;99702.67;125112;1102;104156;-80
2021/12/25 12:32:43;;;;;;;19.53;7.90;;;;;;;7.22;68.11;99707.78;125134;1102;104169;-81
2021/12/25 12:35:31;;;;;;;23.00;8.50;;;;;;;7.18;68.39;99697.23;125115;1102;104185;-79
2021/12/25 12:38:31;;;;;;;18.17;8.27;;;;;;;7.16;68.71;99706.70;125223;1102;104291;-80
2021/12/25 12:41:28;;;;;;;19.57;7.70;;;;;;;7.14;67.88;99710.10;125174;1102;104297;-80